Time,TemperatureF,DewpointF,PressureIn,WindDirection,WindDirectionDegrees,WindSpeedMPH,WindSpeedGustMPH,Humidity,HourlyPrecipIn,Conditions,Clouds,dailyrainin,SolarRadiationWatts/m^2,SoftwareType,DateUTC
2013-06-27 00:02:00,71.0,65.0,-100.00,SSE,152,2.0,7.0,81,0.00,,,0.00,0.000000,,2013-06-27 05:02:00,
2013-06-27 00:32:00,70.0,64.0,-100.00,West,270,3.0,6.0,80,0.00,,,-99.99,0.000000,,2013-06-27 05:32:00,
2013-06-27 00:42:00,70.0,64.0,-100.00,West,270,3.0,6.0,80,0.00,,,-99.99,0.000000,,2013-06-27 05:42:00,
2013-06-27 00:53:00,70.0,64.0,-100.00,West,270,3.0,6.0,80,0.00,,,-99.99,0.000000,,2013-06-27 05:53:00,
2013-06-27 01:01:00,70.0,64.0,-100.00,West,270,3.0,6.0,80,0.00,,,-99.99,0.000000,,2013-06-27 06:01:00,
2013-06-27 01:34:00,69.0,64.0,-100.00,WSW,247,3.0,6.0,83,0.00,,,0.00,0.000000,,2013-06-27 06:34:00,
2013-06-27 01:43:00,69.0,64.0,-100.00,WSW,247,3.0,6.0,83,0.00,,,0.00,0.000000,,2013-06-27 06:43:00,
2013-06-27 01:53:00,69.0,64.0,-100.00,WSW,247,3.0,6.0,83,0.00,,,0.00,0.000000,,2013-06-27 06:53:00,
2013-06-27 02:02:00,69.0,64.0,-100.00,WSW,247,3.0,6.0,83,0.00,,,0.00,0.000000,,2013-06-27 07:02:00,
2013-06-27 02:34:00,66.0,63.0,-100.00,South,180,1.0,4.0,91,0.00,,,0.00,0.000000,,2013-06-27 07:34:00,
2013-06-27 02:43:00,66.0,63.0,-100.00,South,180,1.0,4.0,91,0.00,,,0.00,0.000000,,2013-06-27 07:43:00,
2013-06-27 02:52:00,66.0,63.0,-100.00,South,180,1.0,4.0,91,0.00,,,0.00,0.000000,,2013-06-27 07:52:00,
2013-06-27 03:01:00,66.0,63.0,-100.00,South,180,1.0,4.0,91,0.00,,,0.00,0.000000,,2013-06-27 08:01:00,
2013-06-27 03:34:00,65.0,63.0,-100.00,NW,317,1.0,2.0,93,0.00,,,0.00,0.000000,,2013-06-27 08:34:00,
2013-06-27 03:44:00,65.0,63.0,-100.00,NW,317,1.0,2.0,93,0.00,,,0.00,0.000000,,2013-06-27 08:44:00,
2013-06-27 03:52:00,65.0,63.0,-100.00,NW,317,1.0,2.0,93,0.00,,,0.00,0.000000,,2013-06-27 08:52:00,
2013-06-27 04:02:00,65.0,63.0,-100.00,NW,317,1.0,2.0,93,0.00,,,0.00,0.000000,,2013-06-27 09:02:00,
2013-06-27 04:34:00,68.0,64.0,-100.00,WSW,251,3.0,5.0,86,0.00,,,0.00,0.000000,,2013-06-27 09:34:00,
2013-06-27 04:43:00,68.0,64.0,-100.00,WSW,251,3.0,5.0,86,0.00,,,0.00,0.000000,,2013-06-27 09:43:00,
2013-06-27 04:53:00,68.0,64.0,-100.00,WSW,251,3.0,5.0,86,0.00,,,0.00,0.000000,,2013-06-27 09:53:00,
2013-06-27 05:01:00,68.0,64.0,-100.00,WSW,251,3.0,5.0,86,0.00,,,0.00,0.000000,,2013-06-27 10:01:00,
2013-06-27 05:32:00,68.0,64.0,-100.00,WNW,287,2.0,5.0,86,0.00,,,0.00,0.000000,,2013-06-27 10:32:00,
2013-06-27 05:44:00,68.0,64.0,-100.00,WNW,287,2.0,5.0,86,0.00,,,0.00,0.000000,,2013-06-27 10:44:00,
2013-06-27 05:54:00,68.0,64.0,-100.00,WNW,287,2.0,5.0,86,0.00,,,0.00,0.000000,,2013-06-27 10:54:00,
2013-06-27 06:01:00,68.0,64.0,-100.00,WNW,287,2.0,5.0,86,0.00,,,0.00,0.000000,,2013-06-27 11:01:00,
2013-06-27 06:33:00,67.0,64.0,-100.00,WNW,291,0.0,2.0,91,0.00,,,0.00,11.000000,,2013-06-27 11:33:00,
2013-06-27 06:43:00,67.0,64.0,-100.00,WNW,291,0.0,2.0,91,0.00,,,0.00,11.000000,,2013-06-27 11:43:00,
2013-06-27 06:52:00,67.0,64.0,-100.00,WNW,291,0.0,2.0,91,0.00,,,0.00,11.000000,,2013-06-27 11:52:00,
2013-06-27 07:02:00,67.0,64.0,-100.00,WNW,291,0.0,2.0,91,0.00,,,0.00,11.000000,,2013-06-27 12:02:00,
2013-06-27 07:34:00,71.0,65.0,-100.00,WSW,255,6.0,9.0,80,0.00,,,0.00,112.000000,,2013-06-27 12:34:00,
2013-06-27 07:42:00,71.0,65.0,-100.00,WSW,255,6.0,9.0,80,0.00,,,0.00,112.000000,,2013-06-27 12:42:00,
2013-06-27 08:01:00,71.0,65.0,-100.00,WSW,255,6.0,9.0,80,0.00,,,0.00,112.000000,,2013-06-27 13:01:00,
2013-06-27 08:34:00,71.0,64.0,-100.00,WNW,292,7.0,11.0,79,0.00,,,0.00,202.000000,,2013-06-27 13:34:00,
2013-06-27 08:43:00,71.0,64.0,-100.00,WNW,292,7.0,11.0,79,0.00,,,0.00,202.000000,,2013-06-27 13:43:00,
2013-06-27 08:52:00,71.0,64.0,-100.00,WNW,292,7.0,11.0,79,0.00,,,0.00,202.000000,,2013-06-27 13:52:00,
2013-06-27 09:02:00,71.0,64.0,-100.00,WNW,292,7.0,11.0,79,0.00,,,0.00,202.000000,,2013-06-27 14:02:00,
2013-06-27 09:33:00,76.0,65.0,-100.00,WNW,296,9.0,13.0,70,0.00,,,0.00,431.000000,,2013-06-27 14:33:00,
2013-06-27 09:43:00,76.0,65.0,-100.00,WNW,296,9.0,13.0,70,0.00,,,0.00,431.000000,,2013-06-27 14:43:00,
2013-06-27 09:52:00,76.0,65.0,-100.00,WNW,296,9.0,13.0,70,0.00,,,0.00,431.000000,,2013-06-27 14:52:00,
2013-06-27 10:01:00,76.0,65.0,-100.00,WNW,296,9.0,13.0,70,0.00,,,0.00,431.000000,,2013-06-27 15:01:00,
2013-06-27 10:33:00,80.0,61.0,-100.00,West,267,9.0,13.0,53,0.00,,,0.00,659.000000,,2013-06-27 15:33:00,
2013-06-27 10:42:00,80.0,61.0,-100.00,West,267,9.0,13.0,53,0.00,,,0.00,659.000000,,2013-06-27 15:42:00,
2013-06-27 10:52:00,80.0,61.0,-100.00,West,267,9.0,13.0,53,0.00,,,0.00,659.000000,,2013-06-27 15:52:00,
2013-06-27 11:02:00,80.0,61.0,-100.00,West,267,9.0,13.0,53,0.00,,,0.00,659.000000,,2013-06-27 16:02:00,
2013-06-27 11:34:00,81.0,59.0,-100.00,West,275,13.0,19.0,48,0.00,,,0.00,811.000000,,2013-06-27 16:34:00,
2013-06-27 11:43:00,81.0,59.0,-100.00,West,275,13.0,19.0,48,0.00,,,0.00,811.000000,,2013-06-27 16:43:00,
2013-06-27 11:53:00,81.0,59.0,-100.00,West,275,13.0,19.0,48,0.00,,,0.00,811.000000,,2013-06-27 16:53:00,
2013-06-27 12:02:00,81.0,59.0,-100.00,West,275,13.0,19.0,48,0.00,,,0.00,811.000000,,2013-06-27 17:02:00,
2013-06-27 12:33:00,82.0,60.0,-100.00,WNW,303,15.0,21.0,48,0.00,,,0.00,905.000000,,2013-06-27 17:33:00,
2013-06-27 12:43:00,82.0,60.0,-100.00,WNW,303,15.0,21.0,48,0.00,,,0.00,905.000000,,2013-06-27 17:43:00,
2013-06-27 12:53:00,82.0,60.0,-100.00,WNW,303,15.0,21.0,48,0.00,,,0.00,905.000000,,2013-06-27 17:53:00,
2013-06-27 13:01:00,82.0,60.0,-100.00,WNW,303,15.0,21.0,48,0.00,,,0.00,905.000000,,2013-06-27 18:01:00,
2013-06-27 13:32:00,83.0,56.0,-100.00,WNW,292,13.0,22.0,40,0.00,,,0.00,955.000000,,2013-06-27 18:32:00,
2013-06-27 13:44:00,83.0,56.0,-100.00,WNW,292,13.0,22.0,40,0.00,,,0.00,955.000000,,2013-06-27 18:44:00,
2013-06-27 13:52:00,83.0,56.0,-100.00,WNW,292,13.0,22.0,40,0.00,,,0.00,955.000000,,2013-06-27 18:52:00,
2013-06-27 14:01:00,83.0,56.0,-100.00,WNW,292,13.0,22.0,40,0.00,,,0.00,955.000000,,2013-06-27 19:01:00,
2013-06-27 14:34:00,83.0,57.0,-100.00,WNW,298,16.0,23.0,41,0.00,,,0.00,983.000000,,2013-06-27 19:34:00,
2013-06-27 14:42:00,83.0,57.0,-100.00,WNW,298,16.0,23.0,41,0.00,,,0.00,983.000000,,2013-06-27 19:42:00,
2013-06-27 14:53:00,83.0,57.0,-100.00,WNW,298,16.0,23.0,41,0.00,,,0.00,983.000000,,2013-06-27 19:53:00,
2013-06-27 15:02:00,83.0,57.0,-100.00,WNW,298,16.0,23.0,41,0.00,,,0.00,983.000000,,2013-06-27 20:02:00,
2013-06-27 15:49:00,84.0,55.0,-100.00,WNW,294,17.0,25.0,37,0.00,,,0.00,974.000000,,2013-06-27 20:49:00,
2013-06-27 16:05:00,84.0,55.0,-100.00,WNW,294,17.0,25.0,37,0.00,,,0.00,974.000000,,2013-06-27 21:05:00,
2013-06-27 16:36:00,84.0,59.0,-100.00,WNW,291,14.0,25.0,43,0.00,,,0.00,864.000000,,2013-06-27 21:36:00,
2013-06-27 16:49:00,84.0,59.0,-100.00,WNW,291,14.0,25.0,43,0.00,,,0.00,864.000000,,2013-06-27 21:49:00,
2013-06-27 16:56:00,84.0,59.0,-100.00,WNW,291,14.0,25.0,43,0.00,,,0.00,864.000000,,2013-06-27 21:56:00,
2013-06-27 17:06:00,84.0,59.0,-100.00,WNW,291,14.0,25.0,43,0.00,,,0.00,864.000000,,2013-06-27 22:06:00,
2013-06-27 17:36:00,82.0,55.0,-100.00,WNW,302,14.0,23.0,40,0.00,,,0.00,612.000000,,2013-06-27 22:36:00,
2013-06-27 17:58:00,82.0,55.0,-100.00,WNW,302,14.0,23.0,40,0.00,,,0.00,612.000000,,2013-06-27 22:58:00,
2013-06-27 18:05:00,82.0,55.0,-100.00,WNW,302,14.0,23.0,40,0.00,,,0.00,612.000000,,2013-06-27 23:05:00,
2013-06-27 18:36:00,83.0,58.0,-100.00,WNW,291,13.0,24.0,43,0.00,,,0.00,573.000000,,2013-06-27 23:36:00,
2013-06-27 18:47:00,83.0,58.0,-100.00,WNW,291,13.0,24.0,43,0.00,,,0.00,573.000000,,2013-06-27 23:47:00,
2013-06-27 18:58:00,83.0,58.0,-100.00,WNW,291,13.0,24.0,43,0.00,,,0.00,573.000000,,2013-06-27 23:58:00,
2013-06-27 19:07:00,83.0,58.0,-100.00,WNW,291,13.0,24.0,43,0.00,,,0.00,573.000000,,2013-06-28 00:07:00,
2013-06-27 19:37:00,81.0,58.0,-100.00,West,280,11.0,18.0,45,0.00,,,0.00,371.000000,,2013-06-28 00:37:00,
2013-06-27 19:46:00,81.0,58.0,-100.00,West,280,11.0,18.0,45,0.00,,,0.00,371.000000,,2013-06-28 00:46:00,
2013-06-27 19:56:00,81.0,58.0,-100.00,West,280,11.0,18.0,45,0.00,,,0.00,371.000000,,2013-06-28 00:56:00,
2013-06-27 20:07:00,81.0,58.0,-100.00,West,280,11.0,18.0,45,0.00,,,0.00,371.000000,,2013-06-28 01:07:00,
2013-06-27 20:48:00,80.0,57.0,-100.00,West,276,9.0,14.0,46,0.00,,,0.00,180.000000,,2013-06-28 01:48:00,
2013-06-27 21:06:00,80.0,57.0,-100.00,West,276,9.0,14.0,46,0.00,,,0.00,180.000000,,2013-06-28 02:06:00,
2013-06-27 21:38:00,74.0,57.0,-100.00,NNW,335,6.0,17.0,55,0.00,,,0.00,42.000000,,2013-06-28 02:38:00,
2013-06-27 21:50:00,74.0,57.0,-100.00,NNW,335,6.0,17.0,55,0.00,,,0.00,42.000000,,2013-06-28 02:50:00,
2013-06-27 21:58:00,74.0,57.0,-100.00,NNW,335,6.0,17.0,55,0.00,,,0.00,42.000000,,2013-06-28 02:58:00,
2013-06-27 22:07:00,74.0,57.0,-100.00,NNW,335,6.0,17.0,55,0.00,,,0.00,42.000000,,2013-06-28 03:07:00,
2013-06-27 22:39:00,67.0,58.0,-100.00,NE,49,2.0,14.0,72,0.00,,,-99.99,1.000000,,2013-06-28 03:39:00,
2013-06-27 22:46:00,67.0,58.0,-100.00,NE,49,2.0,14.0,72,0.00,,,-99.99,1.000000,,2013-06-28 03:46:00,
2013-06-27 23:02:00,67.0,58.0,-100.00,NE,49,2.0,14.0,72,0.00,,,-99.99,1.000000,,2013-06-28 04:02:00,
2013-06-27 23:33:00,65.0,58.0,-100.00,SW,218,4.0,5.0,79,0.00,,,0.00,0.000000,,2013-06-28 04:33:00,
2013-06-27 23:43:00,65.0,58.0,-100.00,SW,218,4.0,5.0,79,0.00,,,0.00,0.000000,,2013-06-28 04:43:00,
2013-06-27 23:53:00,65.0,58.0,-100.00,SW,218,4.0,5.0,79,0.00,,,0.00,0.000000,,2013-06-28 04:53:00,